createdAt,value
2022-11-17T00:00:55.158Z,5.10
2022-11-17T00:05:57.917Z,3.87
2022-11-17T00:11:02.936Z,3.33
2022-11-17T00:16:09.350Z,2.93
2022-11-17T00:21:23.720Z,4.43
2022-11-17T00:26:30.214Z,3.43
2022-11-17T00:31:52.121Z,4.10
2022-11-17T00:36:55.993Z,4.40
2022-11-17T00:42:00.213Z,3.40
2022-11-17T00:47:05.962Z,3.83
2022-11-17T00:52:08.920Z,3.47
2022-11-17T00:57:13.402Z,3.13
2022-11-17T01:02:16.238Z,3.13
2022-11-17T01:07:19.062Z,2.67
2022-11-17T01:12:23.208Z,3.33
2022-11-17T01:17:26.243Z,2.90
2022-11-17T01:22:29.361Z,3.27
2022-11-17T01:27:33.755Z,3.23
2022-11-17T01:32:36.536Z,3.57
2022-11-17T01:37:39.341Z,4.90
2022-11-17T01:42:43.426Z,2.40
2022-11-17T01:47:52.740Z,2.30
2022-11-17T01:52:59.564Z,2.43
2022-11-17T01:58:07.980Z,1.90
2022-11-17T02:03:11.046Z,3.07
2022-11-17T02:08:15.581Z,1.90
2022-11-17T02:13:20.518Z,2.33
2022-11-17T02:18:25.656Z,2.47
2022-11-17T02:23:53.248Z,4.73
2022-11-17T02:29:03.033Z,2.37
2022-11-17T02:34:15.008Z,1.70
2022-11-17T02:39:23.627Z,1.87
2022-11-17T02:44:36.643Z,2.50
2022-11-17T02:49:43.091Z,1.53
2022-11-17T02:54:45.910Z,1.80
2022-11-17T02:59:50.774Z,1.83
2022-11-17T03:05:06.523Z,1.50
2022-11-17T03:10:15.867Z,1.83
2022-11-17T03:15:27.390Z,1.40
2022-11-17T03:20:38.844Z,1.60
2022-11-17T03:25:46.562Z,1.90
2022-11-17T03:30:52.481Z,3.03
2022-11-17T03:36:01.767Z,1.53
2022-11-17T03:41:09.284Z,3.70
2022-11-17T03:46:18.562Z,1.90
2022-11-17T03:51:25.921Z,2.00
2022-11-17T03:56:45.823Z,2.00
2022-11-17T04:02:03.097Z,2.63
2022-11-17T04:07:09.269Z,2.50
2022-11-17T04:12:31.286Z,2.03
2022-11-17T04:17:45.273Z,2.23
2022-11-17T04:23:06.850Z,2.83
2022-11-17T04:28:29.470Z,3.13
2022-11-17T04:33:36.993Z,3.13
2022-11-17T04:38:52.121Z,3.17
2022-11-17T04:43:56.630Z,4.60
2022-11-17T04:49:02.204Z,4.20
2022-11-17T04:54:15.061Z,4.40
2022-11-17T04:59:18.402Z,3.13
2022-11-17T05:04:45.913Z,3.43
2022-11-17T05:09:49.019Z,3.47
2022-11-17T05:14:52.541Z,2.23
2022-11-17T05:20:01.034Z,2.83
2022-11-17T05:25:06.575Z,2.70
2022-11-17T05:30:11.185Z,3.47
2022-11-17T05:35:15.961Z,3.00
2022-11-17T05:40:30.349Z,2.07
2022-11-17T05:45:33.276Z,2.80
2022-11-17T05:50:40.609Z,3.80
2022-11-17T05:55:52.193Z,3.23
2022-11-17T06:01:31.730Z,2.23
2022-11-17T06:06:54.787Z,2.87
2022-11-17T06:12:12.079Z,2.37
2022-11-17T06:17:25.911Z,2.53
2022-11-17T06:23:22.254Z,4.17
2022-11-17T06:28:27.403Z,1.70
2022-11-17T06:33:31.973Z,2.23
2022-11-17T06:38:36.791Z,2.20
2022-11-17T06:43:39.545Z,4.93
2022-11-17T06:48:42.364Z,3.10
2022-11-17T06:53:46.423Z,2.37
2022-11-17T06:58:50.292Z,3.83
2022-11-17T07:03:53.061Z,3.60
2022-11-17T07:08:57.154Z,3.60
2022-11-17T07:13:59.939Z,3.00
2022-11-17T07:19:03.763Z,2.17
2022-11-17T07:24:08.678Z,3.47
2022-11-17T07:29:11.445Z,3.53
2022-11-17T07:34:14.212Z,3.50
2022-11-17T07:39:21.453Z,2.63
2022-11-17T07:44:24.904Z,4.00
2022-11-17T07:49:28.630Z,3.27
2022-11-17T07:54:32.720Z,3.33
2022-11-17T07:59:35.545Z,4.07
2022-11-17T08:04:38.288Z,8.83
2022-11-17T08:09:42.362Z,4.00
2022-11-17T08:14:45.154Z,5.23
2022-11-17T08:19:47.872Z,5.93
2022-11-17T08:24:51.918Z,4.87
2022-11-17T08:29:54.653Z,4.50
2022-11-17T08:34:57.777Z,3.03
2022-11-17T08:40:01.846Z,3.17
2022-11-17T08:45:04.963Z,2.87
2022-11-17T08:50:08.770Z,1.93
2022-11-17T08:55:12.892Z,2.33
2022-11-17T09:00:16.660Z,2.53
2022-11-17T09:05:19.430Z,3.73
2022-11-17T09:10:23.597Z,3.90
2022-11-17T09:15:26.421Z,4.10
2022-11-17T09:20:31.748Z,2.90
2022-11-17T09:25:36.128Z,4.10
2022-11-17T09:30:38.871Z,6.77
2022-11-17T09:35:41.602Z,4.40
2022-11-17T09:40:45.753Z,3.63
2022-11-17T09:45:49.804Z,5.57
2022-11-17T09:50:56.839Z,5.17
2022-11-17T09:56:04.760Z,4.57
2022-11-17T10:01:11.627Z,5.93
2022-11-17T10:06:17.965Z,3.10
2022-11-17T10:11:34.897Z,3.77
2022-11-17T10:16:38.883Z,6.83
2022-11-17T10:21:41.754Z,3.83
2022-11-17T10:26:49.538Z,4.03
2022-11-17T10:31:52.339Z,3.83
2022-11-17T10:36:55.121Z,4.07
2022-11-17T10:41:59.308Z,3.07
2022-11-17T10:47:04.078Z,4.37
2022-11-17T10:52:15.148Z,4.37
2022-11-17T10:57:23.137Z,3.20
2022-11-17T11:02:31.608Z,3.37
2022-11-17T11:07:34.636Z,5.17
2022-11-17T11:12:45.934Z,4.40
2022-11-17T11:17:49.713Z,3.43
2022-11-17T11:23:00.173Z,4.27
2022-11-17T11:28:19.364Z,4.37
2022-11-17T11:33:33.239Z,4.10
2022-11-17T11:38:51.855Z,4.43
2022-11-17T11:44:14.879Z,5.37
2022-11-17T11:49:30.205Z,3.37
2022-11-17T11:54:40.421Z,3.73
2022-11-17T11:59:51.551Z,4.87
2022-11-17T12:05:03.379Z,4.73
2022-11-17T12:10:12.499Z,7.20
2022-11-17T12:15:36.934Z,6.90
2022-11-17T12:21:01.099Z,5.97
2022-11-17T12:26:04.488Z,4.67
2022-11-17T12:31:11.693Z,4.17
2022-11-17T12:36:30.977Z,5.60
2022-11-17T12:42:06.200Z,4.83
2022-11-17T12:47:15.187Z,5.63
2022-11-17T12:52:26.743Z,3.83
2022-11-17T12:57:33.443Z,7.70
2022-11-17T13:02:54.059Z,4.43
2022-11-17T13:08:11.642Z,9.00
2022-11-17T13:13:21.024Z,6.47
2022-11-17T13:18:37.305Z,5.57
2022-11-17T13:23:45.254Z,4.70
2022-11-17T13:28:48.967Z,6.00
2022-11-17T13:34:03.019Z,5.27
2022-11-17T13:39:19.531Z,6.50
2022-11-17T13:44:26.384Z,6.70
2022-11-17T13:49:35.553Z,5.77
2022-11-17T13:54:40.147Z,9.27
2022-11-17T13:59:45.188Z,7.53
2022-11-17T14:05:08.329Z,5.80
2022-11-17T14:10:15.776Z,6.17
2022-11-17T14:15:24.872Z,4.47
2022-11-17T14:20:34.108Z,4.93
2022-11-17T14:25:39.607Z,6.20
2022-11-17T14:30:42.665Z,5.43
2022-11-17T14:35:51.052Z,5.50
2022-11-17T14:40:55.073Z,4.27
2022-11-17T14:45:58.072Z,6.57
2022-11-17T14:51:02.193Z,6.13
2022-11-17T14:56:08.673Z,6.47
2022-11-17T15:01:13.896Z,11.53
2022-11-17T15:06:20.108Z,6.73
2022-11-17T15:11:23.831Z,5.63
2022-11-17T15:16:26.568Z,6.13
2022-11-17T15:21:30.640Z,5.83
2022-11-17T15:26:34.088Z,6.00
2022-11-17T15:31:37.001Z,5.93
2022-11-17T15:36:41.197Z,6.90
2022-11-17T15:41:44.049Z,7.33
2022-11-17T15:47:01.930Z,6.77
2022-11-17T15:58:49.105Z,8.27
2022-11-17T16:05:09.041Z,6.53
2022-11-17T16:11:07.795Z,7.63
2022-11-17T16:22:34.491Z,7.13
2022-11-17T16:28:08.123Z,7.30
2022-11-17T16:39:01.012Z,7.30
2022-11-17T16:44:08.808Z,5.47
2022-11-17T16:49:13.484Z,7.70
2022-11-17T16:54:16.608Z,8.47
2022-11-17T16:59:20.767Z,11.20
2022-11-17T17:04:23.573Z,10.13
2022-11-17T17:09:28.187Z,9.07
2022-11-17T17:14:32.496Z,8.77
2022-11-17T17:19:35.392Z,7.80
2022-11-17T17:24:38.172Z,7.50
2022-11-17T17:29:42.260Z,7.57
2022-11-17T17:34:44.976Z,8.20
2022-11-17T17:39:47.843Z,8.97
2022-11-17T17:44:51.884Z,8.40
2022-11-17T17:49:54.591Z,8.63
2022-11-17T17:54:57.669Z,8.73
2022-11-17T18:00:01.920Z,8.00
2022-11-17T18:05:05.053Z,7.17
2022-11-17T18:10:08.652Z,7.07
2022-11-17T18:15:13.202Z,9.10
2022-11-17T18:20:16.626Z,10.37
2022-11-17T18:25:19.669Z,8.87
2022-11-17T18:30:23.743Z,8.23
2022-11-17T18:35:27.129Z,10.27
2022-11-17T18:40:29.918Z,10.00
2022-11-17T18:45:38.240Z,10.20
2022-11-17T18:51:17.214Z,10.27
2022-11-17T18:56:09.717Z,12.90
2022-11-17T19:01:15.976Z,11.47
2022-11-17T19:06:22.308Z,10.20
2022-11-17T19:11:28.268Z,16.60
2022-11-17T19:16:44.745Z,11.43
2022-11-17T19:21:59.348Z,9.67
2022-11-17T19:27:05.627Z,11.17
2022-11-17T19:32:18.326Z,9.63
2022-11-17T21:03:36.099Z,15.53
2022-11-17T21:08:41.115Z,15.27
2022-11-17T21:13:44.121Z,18.37
2022-11-17T21:18:49.625Z,17.90
2022-11-17T21:23:54.476Z,16.03
2022-11-17T21:29:01.754Z,15.43
2022-11-17T21:34:15.245Z,16.57
2022-11-17T21:39:19.616Z,17.07
2022-11-17T21:44:22.713Z,18.60
2022-11-17T21:49:26.920Z,18.73
2022-11-17T21:54:29.782Z,17.53
2022-11-17T21:59:32.544Z,16.90
2022-11-17T22:04:36.673Z,22.10
2022-11-17T22:09:39.376Z,18.70
2022-11-17T22:14:42.107Z,18.23
2022-11-17T22:19:46.476Z,19.97
2022-11-17T22:24:50.056Z,21.67
2022-11-17T22:29:53.084Z,18.07
2022-11-17T22:34:57.112Z,19.60
2022-11-17T22:39:59.879Z,18.93
2022-11-17T22:45:02.613Z,17.90
2022-11-17T22:50:07.439Z,16.80
2022-11-17T22:55:10.409Z,20.47
2022-11-17T23:00:17.135Z,20.87
2022-11-17T23:05:22.194Z,17.53
2022-11-17T23:10:25.138Z,17.60
2022-11-17T23:15:28.625Z,18.77
2022-11-17T23:20:33.260Z,17.57
2022-11-17T23:25:36.521Z,17.83
2022-11-17T23:30:39.267Z,19.30
2022-11-17T23:35:43.389Z,18.33
2022-11-17T23:40:46.117Z,18.73
2022-11-17T23:45:48.909Z,23.40
2022-11-17T23:50:52.968Z,20.50
2022-11-17T23:55:55.793Z,19.80
